createdAt,value
2019-02-23T00:00:43.790Z,103482.24
2019-02-23T00:03:16.295Z,103486.98
2019-02-23T00:05:45.965Z,103482.67
2019-02-23T00:08:16.074Z,103483.54
2019-02-23T00:10:45.737Z,103493.94
2019-02-23T00:13:15.494Z,103490.02
2019-02-23T00:15:45.329Z,103490.45
2019-02-23T00:18:15.455Z,103502.16
2019-02-23T00:20:45.314Z,103494.81
2019-02-23T00:23:15.130Z,103499.97
2019-02-23T00:25:44.832Z,103493.94
2019-02-23T00:28:14.838Z,103496.98
2019-02-23T00:30:44.534Z,103492.20
2019-02-23T00:33:14.599Z,103492.63
2019-02-23T00:35:44.265Z,103487.47
2019-02-23T00:38:14.493Z,103481.42
2019-02-23T00:40:44.172Z,103479.27
2019-02-23T00:43:13.897Z,103486.61
2019-02-23T00:45:43.579Z,103481.86
2019-02-23T00:48:13.498Z,103480.55
2019-02-23T00:50:44.362Z,103474.94
2019-02-23T00:53:14.913Z,103470.20
2019-02-23T00:55:44.610Z,103473.63
2019-02-23T00:58:14.612Z,103477.97
2019-02-23T01:00:44.298Z,103478.38
2019-02-23T01:03:14.962Z,103476.22
2019-02-23T01:05:44.656Z,103463.72
2019-02-23T01:08:14.606Z,103467.58
2019-02-23T01:10:44.353Z,103459.38
2019-02-23T01:13:14.425Z,103459.80
2019-02-23T01:15:44.136Z,103468.00
2019-02-23T01:18:13.904Z,103460.66
2019-02-23T01:20:43.947Z,103459.37
2019-02-23T01:23:14.030Z,103450.71
2019-02-23T01:25:43.807Z,103448.98
2019-02-23T01:28:13.582Z,103452.88
2019-02-23T01:30:43.280Z,103448.99
2019-02-23T01:33:13.199Z,103445.97
2019-02-23T01:35:43.195Z,103443.36
2019-02-23T01:38:14.579Z,103439.45
2019-02-23T01:40:44.485Z,103432.11
2019-02-23T01:43:14.197Z,103429.48
2019-02-23T01:45:44.070Z,103423.84
2019-02-23T01:48:13.943Z,103429.91
2019-02-23T01:50:43.704Z,103434.66
2019-02-23T01:53:13.721Z,103441.55
2019-02-23T01:55:43.544Z,103441.13
2019-02-23T01:58:13.225Z,103438.53
2019-02-23T02:00:43.553Z,103438.11
2019-02-23T02:03:13.305Z,103441.15
2019-02-23T02:05:43.061Z,103433.37
2019-02-23T02:08:13.930Z,103430.37
2019-02-23T02:10:43.796Z,103427.78
2019-02-23T02:13:13.621Z,103428.62
2019-02-23T02:15:43.466Z,103430.80
2019-02-23T02:18:13.146Z,103432.09
2019-02-23T02:20:42.996Z,103431.24
2019-02-23T02:23:12.741Z,103426.06
2019-02-23T02:25:42.433Z,103429.08
2019-02-23T02:28:12.126Z,103428.68
2019-02-23T02:30:41.884Z,103419.64
2019-02-23T02:33:11.570Z,103418.73
2019-02-23T02:35:41.261Z,103417.41
2019-02-23T02:38:11.770Z,103419.13
2019-02-23T02:40:41.542Z,103416.55
2019-02-23T02:43:11.299Z,103419.56
2019-02-23T02:45:41.230Z,103417.39
2019-02-23T02:48:10.910Z,103414.81
2019-02-23T02:50:40.734Z,103416.95
2019-02-23T02:53:10.400Z,103412.21
2019-02-23T02:55:40.241Z,103412.16
2019-02-23T02:58:09.936Z,103416.50
2019-02-23T03:00:40.060Z,103420.80
2019-02-23T03:03:09.836Z,103421.66
2019-02-23T03:05:39.515Z,103427.69
2019-02-23T03:08:09.188Z,103422.09
2019-02-23T03:10:39.931Z,103422.53
2019-02-23T03:13:10.073Z,103420.38
2019-02-23T03:15:39.987Z,103418.22
2019-02-23T03:18:09.672Z,103422.09
2019-02-23T03:20:39.357Z,103422.52
2019-02-23T03:23:09.054Z,103429.84
2019-02-23T03:25:38.737Z,103431.15
2019-02-23T03:28:08.911Z,103431.56
2019-02-23T03:30:38.602Z,103427.69
2019-02-23T03:33:08.540Z,103431.57
2019-02-23T03:35:38.547Z,103427.67
2019-02-23T03:38:08.214Z,103431.52
2019-02-23T03:40:37.949Z,103428.52
2019-02-23T03:43:07.708Z,103432.81
2019-02-23T03:45:37.574Z,103432.36
2019-02-23T03:48:07.268Z,103438.38
2019-02-23T03:50:48.369Z,103437.05
2019-02-23T03:53:08.625Z,103443.06
2019-02-23T03:55:38.733Z,103439.58
2019-02-23T03:58:08.499Z,103444.33
2019-02-23T04:00:38.181Z,103449.49
2019-02-23T04:03:07.873Z,103449.08
2019-02-23T04:05:37.549Z,103445.62
2019-02-23T04:08:07.231Z,103447.36
2019-02-23T04:10:37.062Z,103443.48
2019-02-23T04:13:08.014Z,103446.94
2019-02-23T04:15:37.696Z,103448.66
2019-02-23T04:18:07.385Z,103447.36
2019-02-23T04:20:37.058Z,103448.69
2019-02-23T04:23:06.813Z,103458.16
2019-02-23T04:25:36.833Z,103453.44
2019-02-23T04:28:06.492Z,103459.03
2019-02-23T04:30:36.234Z,103462.03
2019-02-23T04:33:06.093Z,103459.41
2019-02-23T04:35:35.784Z,103462.00
2019-02-23T04:38:05.669Z,103462.00
2019-02-23T04:40:35.433Z,103459.41
2019-02-23T04:43:06.272Z,103457.25
2019-02-23T04:45:35.951Z,103463.26
2019-02-23T04:48:05.664Z,103460.22
2019-02-23T04:50:35.317Z,103460.64
2019-02-23T04:53:05.284Z,103468.39
2019-02-23T04:55:34.954Z,103464.93
2019-02-23T04:58:05.217Z,103464.52
2019-02-23T05:00:34.910Z,103462.77
2019-02-23T05:03:05.011Z,103453.30
2019-02-23T05:05:35.207Z,103447.22
2019-02-23T05:08:05.234Z,103448.97
2019-02-23T05:10:34.918Z,103451.94
2019-02-23T05:13:05.003Z,103448.89
2019-02-23T05:15:34.691Z,103451.02
2019-02-23T05:18:05.447Z,103445.84
2019-02-23T05:20:35.129Z,103445.81
2019-02-23T05:23:05.146Z,103440.22
2019-02-23T05:25:34.970Z,103447.09
2019-02-23T05:28:05.178Z,103445.80
2019-02-23T05:30:34.897Z,103444.52
2019-02-23T05:33:06.474Z,103440.22
2019-02-23T05:35:36.592Z,103441.94
2019-02-23T05:38:06.768Z,103444.09
2019-02-23T05:40:36.466Z,103446.67
2019-02-23T05:43:06.365Z,103452.26
2019-02-23T05:45:36.506Z,103456.97
2019-02-23T05:48:06.519Z,103452.17
2019-02-23T05:50:36.302Z,103446.09
2019-02-23T05:53:05.976Z,103452.49
2019-02-23T05:55:35.676Z,103452.07
2019-02-23T05:58:05.401Z,103454.65
2019-02-23T06:00:35.139Z,103454.61
2019-02-23T06:03:05.603Z,103456.77
2019-02-23T06:05:35.272Z,103459.77
2019-02-23T06:08:05.199Z,103465.34
2019-02-23T06:10:34.886Z,103462.72
2019-02-23T06:13:05.280Z,103462.71
2019-02-23T06:15:35.032Z,103457.09
2019-02-23T06:18:05.089Z,103463.95
2019-02-23T06:20:34.771Z,103460.48
2019-02-23T06:23:04.923Z,103457.89
2019-02-23T06:25:34.610Z,103461.72
2019-02-23T06:28:05.220Z,103462.96
2019-02-23T06:30:34.990Z,103462.12
2019-02-23T06:33:05.350Z,103461.25
2019-02-23T06:35:35.048Z,103462.53
2019-02-23T06:38:06.263Z,103465.94
2019-02-23T06:40:36.177Z,103463.77
2019-02-23T06:43:05.933Z,103472.39
2019-02-23T06:45:35.619Z,103469.81
2019-02-23T06:48:06.338Z,103478.02
2019-02-23T06:50:36.131Z,103474.14
2019-02-23T06:53:06.478Z,103478.42
2019-02-23T06:55:36.402Z,103474.91
2019-02-23T06:58:06.083Z,103475.33
2019-02-23T07:00:35.821Z,103480.43
2019-02-23T07:03:05.503Z,103478.73
2019-02-23T07:05:35.194Z,103481.77
2019-02-23T07:08:05.306Z,103482.60
2019-02-23T07:10:34.989Z,103489.52
2019-02-23T07:13:05.195Z,103490.80
2019-02-23T07:15:34.899Z,103485.16
2019-02-23T07:18:05.209Z,103482.65
2019-02-23T07:20:43.803Z,103477.48
2019-02-23T07:23:06.594Z,103477.98
2019-02-23T07:25:36.569Z,103481.95
2019-02-23T07:28:06.247Z,103486.70
2019-02-23T07:30:36.209Z,103490.59
2019-02-23T07:33:06.085Z,103491.52
2019-02-23T07:35:35.773Z,103490.64
2019-02-23T07:38:05.453Z,103492.34
2019-02-23T07:40:35.421Z,103493.64
2019-02-23T07:43:05.891Z,103497.09
2019-02-23T07:45:35.986Z,103506.55
2019-02-23T07:48:06.417Z,103497.05
2019-02-23T07:50:36.105Z,103496.16
2019-02-23T07:53:05.828Z,103504.37
2019-02-23T07:55:35.752Z,103501.72
2019-02-23T07:58:07.003Z,103507.71
2019-02-23T08:00:36.676Z,103498.67
2019-02-23T08:03:06.361Z,103499.14
2019-02-23T08:05:36.051Z,103502.55
2019-02-23T08:08:05.731Z,103499.61
2019-02-23T08:10:36.597Z,103498.33
2019-02-23T08:13:06.557Z,103497.03
2019-02-23T08:15:36.258Z,103498.73
2019-02-23T08:18:06.226Z,103502.25
2019-02-23T08:20:36.078Z,103496.27
2019-02-23T08:23:05.961Z,103495.85
2019-02-23T08:25:35.654Z,103484.23
2019-02-23T08:28:05.772Z,103489.41
2019-02-23T08:30:35.462Z,103488.59
2019-02-23T08:33:05.152Z,103492.50
2019-02-23T08:35:34.837Z,103501.20
2019-02-23T08:38:05.233Z,103496.50
2019-02-23T08:40:35.375Z,103491.84
2019-02-23T08:43:05.049Z,103507.34
2019-02-23T08:45:35.499Z,103506.09
2019-02-23T08:48:05.201Z,103500.14
2019-02-23T08:50:34.887Z,103502.36
2019-02-23T08:53:05.024Z,103488.16
2019-02-23T08:55:34.724Z,103488.16
2019-02-23T08:58:05.365Z,103492.11
2019-02-23T09:00:35.297Z,103492.15
2019-02-23T09:03:05.508Z,103492.19
2019-02-23T09:05:35.308Z,103500.85
2019-02-23T09:08:05.192Z,103498.30
2019-02-23T09:10:34.874Z,103497.46
2019-02-23T09:13:06.136Z,103492.31
2019-02-23T09:15:35.810Z,103485.45
2019-02-23T09:18:05.622Z,103494.56
2019-02-23T09:20:35.838Z,103495.05
2019-02-23T09:23:05.533Z,103493.38
2019-02-23T09:25:35.587Z,103495.59
2019-02-23T09:28:06.297Z,103489.97
2019-02-23T09:30:35.976Z,103486.12
2019-02-23T09:33:06.026Z,103488.72
2019-02-23T09:35:35.722Z,103480.94
2019-02-23T09:38:05.517Z,103473.20
2019-02-23T09:40:35.298Z,103479.25
2019-02-23T09:43:04.985Z,103471.06
2019-02-23T09:45:34.681Z,103473.66
2019-02-23T09:48:05.310Z,103467.59
2019-02-23T09:50:34.980Z,103480.56
2019-02-23T09:53:11.261Z,103474.52
2019-02-23T09:55:36.510Z,103466.71
2019-02-23T09:58:06.389Z,103470.15
2019-02-23T10:00:36.076Z,103475.34
2019-02-23T10:03:05.929Z,103470.14
2019-02-23T10:05:38.133Z,103472.70
2019-02-23T10:08:07.007Z,103469.63
2019-02-23T10:10:36.685Z,103467.02
2019-02-23T10:13:06.707Z,103456.20
2019-02-23T10:15:36.507Z,103448.36
2019-02-23T10:18:06.202Z,103439.27
2019-02-23T10:20:36.188Z,103439.19
2019-02-23T10:23:05.896Z,103441.34
2019-02-23T10:25:35.575Z,103434.31
2019-02-23T10:28:05.346Z,103431.23
2019-02-23T10:30:35.020Z,103437.22
2019-02-23T10:33:05.286Z,103441.52
2019-02-23T10:35:35.209Z,103439.73
2019-02-23T10:38:05.279Z,103436.25
2019-02-23T10:40:34.987Z,103434.48
2019-02-23T10:43:05.040Z,103436.17
2019-02-23T10:45:34.717Z,103429.15
2019-02-23T10:48:05.231Z,103426.87
2019-02-23T10:50:35.002Z,103428.99
2019-02-23T10:53:05.357Z,103431.95
2019-02-23T10:55:35.049Z,103429.70
2019-02-23T10:58:06.150Z,103429.17
2019-02-23T11:00:35.998Z,103429.98
2019-02-23T11:03:05.777Z,103432.55
2019-02-23T11:05:35.513Z,103439.41
2019-02-23T11:08:05.563Z,103432.30
2019-02-23T11:10:35.588Z,103435.67
2019-02-23T11:13:05.408Z,103441.24
2019-02-23T11:15:35.190Z,103439.30
2019-02-23T11:18:05.056Z,103435.20
2019-02-23T11:20:35.298Z,103431.14
2019-02-23T11:23:05.247Z,103419.15
2019-02-23T11:25:35.187Z,103421.61
2019-02-23T11:28:05.372Z,103416.57
2019-02-23T11:30:35.205Z,103408.05
2019-02-23T11:33:05.242Z,103407.17
2019-02-23T11:35:35.183Z,103403.52
2019-02-23T11:38:05.519Z,103408.56
2019-02-23T11:40:35.484Z,103402.41
2019-02-23T11:43:05.233Z,103396.20
2019-02-23T11:45:35.321Z,103385.90
2019-02-23T11:48:05.306Z,103388.59
2019-02-23T11:50:35.070Z,103386.99
2019-02-23T11:53:05.814Z,103381.60
2019-02-23T11:55:35.501Z,103391.00
2019-02-23T11:58:05.326Z,103382.22
2019-02-23T12:00:35.019Z,103381.91
2019-02-23T12:03:04.973Z,103386.82
2019-02-23T12:05:34.651Z,103387.83
2019-02-23T12:08:05.225Z,103388.20
2019-02-23T12:10:34.916Z,103388.73
2019-02-23T12:13:04.956Z,103391.76
2019-02-23T12:15:34.643Z,103382.80
2019-02-23T12:18:04.929Z,103380.56
2019-02-23T12:20:34.613Z,103372.13
2019-02-23T12:23:05.210Z,103367.14
2019-02-23T12:25:34.903Z,103369.45
2019-02-23T12:28:05.289Z,103360.23
2019-02-23T12:30:35.201Z,103357.69
2019-02-23T12:33:04.965Z,103361.27
2019-02-23T12:35:34.655Z,103363.38
2019-02-23T12:38:05.175Z,103355.00
2019-02-23T12:40:34.885Z,103348.02
2019-02-23T12:43:05.242Z,103349.33
2019-02-23T12:45:34.910Z,103354.34
2019-02-23T12:48:05.381Z,103348.34
2019-02-23T12:50:35.070Z,103349.03
2019-02-23T12:53:05.098Z,103346.95
2019-02-23T12:55:34.940Z,103341.25
2019-02-23T12:58:05.339Z,103333.28
2019-02-23T13:00:35.016Z,103333.58
2019-02-23T13:03:05.098Z,103334.25
2019-02-23T13:05:35.007Z,103329.87
2019-02-23T13:08:05.114Z,103320.52
2019-02-23T13:10:34.778Z,103315.84
2019-02-23T13:13:58.993Z,103318.35
2019-02-23T13:17:06.290Z,103313.50
2019-02-23T13:20:20.234Z,103316.17
2019-02-23T13:23:29.965Z,103310.06
2019-02-23T13:26:41.557Z,103309.43
2019-02-23T13:29:28.645Z,103305.25
2019-02-23T13:32:21.425Z,103304.36
2019-02-23T13:35:06.719Z,103306.47
2019-02-23T13:40:55.793Z,103307.80
2019-02-23T13:44:01.411Z,103311.43
2019-02-23T13:47:00.181Z,103312.23
2019-02-23T13:50:13.033Z,103310.00
2019-02-23T13:53:40.177Z,103309.02
2019-02-23T13:56:38.361Z,103313.55
2019-02-23T13:59:45.251Z,103315.37
2019-02-23T14:02:32.528Z,103320.47
2019-02-23T14:05:35.495Z,103301.27
2019-02-23T14:08:50.693Z,103310.09
2019-02-23T14:12:00.677Z,103309.40
2019-02-23T14:15:02.230Z,103303.87
2019-02-23T14:18:04.615Z,103306.17
2019-02-23T14:21:18.384Z,103306.08
2019-02-23T14:24:12.684Z,103300.03
2019-02-23T14:27:10.286Z,103309.35
2019-02-23T14:30:28.304Z,103296.19
2019-02-23T14:33:33.887Z,103298.63
2019-02-23T14:36:19.655Z,103297.13
2019-02-23T14:39:24.957Z,103297.59
2019-02-23T14:42:09.584Z,103290.36
2019-02-23T14:45:02.062Z,103292.31
2019-02-23T14:47:56.837Z,103289.89
2019-02-23T14:50:56.986Z,103280.47
2019-02-23T14:53:52.006Z,103283.92
2019-02-23T14:56:55.071Z,103286.31
2019-02-23T14:59:40.670Z,103281.88
2019-02-23T15:02:47.376Z,103285.80
2019-02-23T15:05:43.377Z,103281.13
2019-02-23T15:08:40.541Z,103277.95
2019-02-23T15:12:06.677Z,103281.18
2019-02-23T15:15:12.790Z,103280.00
2019-02-23T15:18:20.997Z,103281.95
2019-02-23T15:21:27.347Z,103275.98
2019-02-23T15:24:37.895Z,103282.48
2019-02-23T15:27:24.988Z,103290.64
2019-02-23T15:30:30.084Z,103286.44
2019-02-23T15:33:35.278Z,103283.50
2019-02-23T15:36:18.917Z,103279.80
2019-02-23T15:39:25.017Z,103280.95
2019-02-23T15:42:42.118Z,103275.84
2019-02-23T15:45:46.283Z,103270.06
2019-02-23T15:48:34.889Z,103267.22
2019-02-23T15:51:05.408Z,103273.09
2019-02-23T15:53:35.130Z,103273.09
2019-02-23T15:56:04.924Z,103279.63
2019-02-23T15:58:35.631Z,103275.38
2019-02-23T16:01:05.363Z,103280.81
2019-02-23T16:03:35.129Z,103281.03
2019-02-23T16:06:05.155Z,103283.25
2019-02-23T16:08:34.855Z,103279.81
2019-02-23T16:11:04.923Z,103280.25
2019-02-23T16:13:34.802Z,103277.26
2019-02-23T16:16:05.017Z,103270.34
2019-02-23T16:18:35.005Z,103269.62
2019-02-23T16:21:05.409Z,103266.74
2019-02-23T16:23:35.748Z,103261.13
2019-02-23T16:26:05.383Z,103264.70
2019-02-23T16:28:35.316Z,103264.77
2019-02-23T16:31:04.994Z,103264.47
2019-02-23T16:33:34.688Z,103264.22
2019-02-23T16:36:05.337Z,103271.23
2019-02-23T16:38:35.079Z,103271.37
2019-02-23T16:41:05.657Z,103274.95
2019-02-23T16:43:35.397Z,103289.36
2019-02-23T16:46:05.123Z,103281.18
2019-02-23T16:48:34.886Z,103286.97
2019-02-23T16:51:04.968Z,103287.58
2019-02-23T16:53:34.877Z,103289.89
2019-02-23T16:56:05.472Z,103297.45
2019-02-23T16:58:35.118Z,103301.93
2019-02-23T17:01:05.928Z,103300.67
2019-02-23T17:03:35.886Z,103305.58
2019-02-23T17:06:05.533Z,103299.18
2019-02-23T17:08:35.589Z,103301.13
2019-02-23T17:11:05.276Z,103305.11
2019-02-23T17:13:35.007Z,103307.41
2019-02-23T17:16:05.411Z,103306.66
2019-02-23T17:18:35.084Z,103302.45
2019-02-23T17:21:04.980Z,103303.05
2019-02-23T17:23:34.651Z,103299.28
2019-02-23T17:26:05.260Z,103310.75
2019-02-23T17:28:34.939Z,103312.67
2019-02-23T17:31:05.521Z,103313.17
2019-02-23T17:33:35.196Z,103317.64
2019-02-23T17:36:05.128Z,103307.33
2019-02-23T17:41:17.022Z,103322.25
2019-02-23T17:43:46.761Z,103317.10
2019-02-23T17:46:16.435Z,103315.86
2019-02-23T17:48:46.699Z,103315.92
2019-02-23T17:51:16.361Z,103313.81
2019-02-23T17:53:46.034Z,103310.03
2019-02-23T17:56:15.957Z,103313.97
2019-02-23T17:58:48.911Z,103303.70
2019-02-23T18:01:18.766Z,103305.03
2019-02-23T18:03:48.701Z,103303.38
2019-02-23T18:06:18.389Z,103300.42
2019-02-23T18:08:48.077Z,103299.19
2019-02-23T18:11:17.834Z,103290.14
2019-02-23T18:13:47.512Z,103290.56
2019-02-23T18:16:17.194Z,103286.31
2019-02-23T18:18:46.893Z,103284.66
2019-02-23T18:21:16.573Z,103295.98
2019-02-23T18:23:46.405Z,103291.33
2019-02-23T18:26:21.055Z,103292.27
2019-02-23T18:28:48.160Z,103280.59
2019-02-23T18:31:18.376Z,103277.63
2019-02-23T18:33:48.059Z,103280.74
2019-02-23T18:36:17.854Z,103274.30
2019-02-23T18:38:47.836Z,103275.23
2019-02-23T18:41:17.705Z,103274.37
2019-02-23T18:43:48.312Z,103267.96
2019-02-23T18:46:18.007Z,103272.31
2019-02-23T18:48:47.742Z,103271.92
2019-02-23T18:51:17.426Z,103270.69
2019-02-23T18:53:47.114Z,103264.24
2019-02-23T18:56:16.808Z,103263.42
2019-02-23T18:58:46.907Z,103259.13
2019-02-23T19:01:16.577Z,103257.44
2019-02-23T19:03:46.244Z,103260.08
2019-02-23T19:06:16.277Z,103257.08
2019-02-23T19:08:46.214Z,103259.70
2019-02-23T19:11:15.882Z,103258.44
2019-02-23T19:13:46.060Z,103258.45
2019-02-23T19:16:15.739Z,103261.94
2019-02-23T19:18:45.423Z,103261.09
2019-02-23T19:21:15.113Z,103262.45
2019-02-23T19:23:44.824Z,103259.46
2019-02-23T19:26:14.755Z,103259.91
2019-02-23T19:28:44.417Z,103262.97
2019-02-23T19:31:14.137Z,103257.83
2019-02-23T19:33:43.890Z,103260.00
2019-02-23T19:36:13.643Z,103258.27
2019-02-23T19:38:43.322Z,103257.42
2019-02-23T19:41:13.329Z,103253.13
2019-02-23T19:43:44.240Z,103259.21
2019-02-23T19:46:13.983Z,103253.63
2019-02-23T19:48:43.658Z,103255.39
2019-02-23T19:51:13.365Z,103257.16
2019-02-23T19:53:43.369Z,103248.11
2019-02-23T19:56:13.074Z,103253.75
2019-02-23T19:58:42.816Z,103261.58
2019-02-23T20:01:12.505Z,103255.97
2019-02-23T20:03:42.278Z,103253.41
2019-02-23T20:06:12.378Z,103253.01
2019-02-23T20:08:42.319Z,103251.31
2019-02-23T20:11:12.246Z,103251.77
2019-02-23T20:13:42.208Z,103255.64
2019-02-23T20:16:11.999Z,103254.80
2019-02-23T20:18:42.657Z,103253.09
2019-02-23T20:21:12.321Z,103252.25
2019-02-23T20:23:42.011Z,103255.31
2019-02-23T20:26:11.695Z,103261.81
2019-02-23T20:28:42.266Z,103261.83
2019-02-23T20:31:11.946Z,103262.30
2019-02-23T20:33:41.714Z,103262.77
2019-02-23T20:36:11.408Z,103251.09
2019-02-23T20:38:41.072Z,103248.52
2019-02-23T20:41:10.764Z,103244.64
2019-02-23T20:43:40.501Z,103237.75
2019-02-23T20:46:10.176Z,103237.77
2019-02-23T20:48:40.523Z,103239.92
2019-02-23T20:51:10.431Z,103238.62
2019-02-23T20:53:40.441Z,103236.44
2019-02-23T20:56:10.118Z,103240.36
2019-02-23T20:58:40.021Z,103239.51
2019-02-23T21:01:10.087Z,103242.95
2019-02-23T21:03:39.766Z,103234.33
2019-02-23T21:06:09.457Z,103237.36
2019-02-23T21:08:39.650Z,103239.50
2019-02-23T21:11:09.875Z,103234.77
2019-02-23T21:13:39.592Z,103239.11
2019-02-23T21:16:09.263Z,103245.56
2019-02-23T21:18:39.246Z,103245.10
2019-02-23T21:21:08.909Z,103236.91
2019-02-23T21:23:38.823Z,103240.36
2019-02-23T21:26:08.505Z,103242.98
2019-02-23T21:28:38.201Z,103230.91
2019-02-23T21:31:07.886Z,103233.09
2019-02-23T21:33:37.785Z,103234.81
2019-02-23T21:36:07.533Z,103235.30
2019-02-23T21:38:37.280Z,103230.13
2019-02-23T21:41:06.957Z,103230.57
2019-02-23T21:43:36.623Z,103238.38
2019-02-23T21:46:06.305Z,103238.82
2019-02-23T21:48:36.240Z,103239.25
2019-02-23T21:51:05.944Z,103237.97
2019-02-23T21:53:36.078Z,103238.43
2019-02-23T21:56:05.758Z,103249.23
2019-02-23T21:58:35.826Z,103248.80
2019-02-23T22:01:05.492Z,103248.38
2019-02-23T22:03:35.420Z,103253.13
2019-02-23T22:06:05.710Z,103257.00
2019-02-23T22:08:35.640Z,103254.00
2019-02-23T22:11:05.385Z,103261.33
2019-02-23T22:13:35.162Z,103259.16
2019-02-23T22:16:04.835Z,103266.50
2019-02-23T22:18:34.855Z,103263.48
2019-02-23T22:21:04.928Z,103262.59
2019-02-23T22:23:34.603Z,103263.02
2019-02-23T22:26:04.380Z,103262.59
2019-02-23T22:28:34.053Z,103266.46
2019-02-23T22:31:04.780Z,103273.80
2019-02-23T22:33:34.465Z,103277.23
2019-02-23T22:36:04.971Z,103278.97
2019-02-23T22:38:34.823Z,103285.41
2019-02-23T22:41:05.129Z,103288.86
2019-02-23T22:43:34.820Z,103289.26
2019-02-23T22:46:05.405Z,103289.69
2019-02-23T22:48:35.566Z,103287.11
2019-02-23T22:51:05.309Z,103286.22
2019-02-23T22:53:35.974Z,103287.52
2019-02-23T22:56:05.653Z,103286.20
2019-02-23T22:58:35.325Z,103296.52
2019-02-23T23:01:07.179Z,103290.92
2019-02-23T23:03:37.401Z,103290.05
2019-02-23T23:06:07.169Z,103294.34
2019-02-23T23:08:36.850Z,103290.47
2019-02-23T23:11:06.604Z,103293.47
2019-02-23T23:13:36.291Z,103287.02
2019-02-23T23:16:05.965Z,103281.42
2019-02-23T23:18:36.068Z,103276.68
2019-02-23T23:21:05.746Z,103278.39
2019-02-23T23:23:35.480Z,103281.82
2019-02-23T23:26:05.420Z,103284.41
2019-02-23T23:28:35.354Z,103282.66
2019-02-23T23:31:05.041Z,103274.89
2019-02-23T23:33:34.751Z,103281.77
2019-02-23T23:36:04.948Z,103282.64
2019-02-23T23:38:34.612Z,103289.48
2019-02-23T23:41:05.221Z,103291.66
2019-02-23T23:43:34.901Z,103286.88
2019-02-23T23:46:05.116Z,103292.92
2019-02-23T23:48:34.812Z,103293.30
2019-02-23T23:51:05.036Z,103293.30
2019-02-23T23:53:34.981Z,103290.72
2019-02-23T23:56:05.720Z,103291.56
2019-02-23T23:58:35.792Z,103285.07
